Flight Track Log - Related Links

Times and Time Zones

All times are in EST time to prevent confusion due to time zone crossing. See the ERR781 flight status page for this flight to view local times or setup timezone preferences in your user account.

Time Position Orientation Groundspeed Altitude Reporting Facility
EST Latitude Longitude Course Direction KTS MPH feet Rate Location/Type
Mon 05:24:18 PM 70.0167 -148.5333 173° South 150 173 7,300  Level Anchorage Center
Mon 05:25:19 PM 69.9667 -148.5167 173° South 170 196 8,800 1,339 Climbing Anchorage Center
Mon 05:26:19 PM 69.9167 -148.5167 180° South 180 207 10,000 1,300 Climbing Anchorage Center
Mon 05:27:19 PM 69.8667 -148.5000 173° South 190 219 11,400 1,289 Climbing Anchorage Center
Mon 05:28:20 PM 69.8167 -148.5000 180° South 190 219 12,600 1,289 Climbing Anchorage Center
Mon 05:29:20 PM 69.7500 -148.4833 175° South 190 219 14,000 1,300 Climbing Anchorage Center
Mon 05:30:20 PM 69.7000 -148.4833 180° South 200 230 15,200 1,140 Climbing Anchorage Center
Mon 05:31:21 PM 69.6500 -148.4667 173° South 200 230 16,300 992 Climbing Anchorage Center
Mon 05:32:21 PM 69.6000 -148.4667 180° South 200 230 17,200 800 Climbing Anchorage Center
Mon 05:33:21 PM 69.5333 -148.4500 175° South 200 230 17,900 744 Climbing Anchorage Center
Mon 05:34:22 PM 69.4833 -148.4500 180° South 200 230 18,700 836 Climbing Anchorage Center
Mon 05:35:23 PM 69.4333 -148.4333 173° South 200 230 19,600 900 Climbing Anchorage Center
Mon 05:36:22 PM 69.3667 -148.4333 180° South 200 230 20,500 900 Climbing Anchorage Center
Mon 05:37:23 PM 69.3167 -148.4167 173° South 190 219 21,400 893 Climbing Anchorage Center
Mon 05:38:23 PM 69.2667 -148.4167 180° South 190 219 22,300 793 Climbing Anchorage Center
Mon 05:39:24 PM 69.2167 -148.4000 173° South 190 219 23,000 347 Climbing Anchorage Center
Mon 05:40:24 PM 69.1667 -148.4000 180° South 210 242 23,000  Level Anchorage Center
Mon 05:41:24 PM 69.1000 -148.3833 175° South 230 265 23,000  Level Anchorage Center
Mon 05:42:25 PM 69.0333 -148.3833 180° South 240 276 23,000  Level Anchorage Center
Mon 05:44:25 PM 68.9000 -148.3500 175° South 230 265 23,000  Level Anchorage Center
Mon 05:45:26 PM 68.8333 -148.3500 180° South 220 253 23,000  Level Anchorage Center
Mon 05:46:26 PM 68.7833 -148.3500 180° South 230 265 23,000  Level Anchorage Center
Mon 05:47:26 PM 68.7167 -148.3333 175° South 230 265 23,000  Level Anchorage Center
Mon 05:48:27 PM 68.6500 -148.3167 175° South 230 265 23,000  Level Anchorage Center
Mon 05:49:27 PM 68.5833 -148.3167 180° South 230 265 23,000  Level Anchorage Center
Mon 05:50:27 PM 68.5167 -148.3000 175° South 230 265 23,000  Level Anchorage Center
Mon 05:51:27 PM 68.4500 -148.3000 180° South 240 276 23,000  Level Anchorage Center
Mon 05:52:28 PM 68.3833 -148.2833 175° South 240 276 23,000  Level Anchorage Center
Mon 05:53:28 PM 68.3333 -148.2833 180° South 220 253 23,000  Level Anchorage Center
Mon 05:54:28 PM 68.2667 -148.2667 175° South 230 265 23,000  Level Anchorage Center
Mon 05:55:29 PM 68.2000 -148.2667 180° South 230 265 23,000  Level Anchorage Center
Mon 05:56:29 PM 68.1333 -148.2500 175° South 220 253 23,000  Level Anchorage Center
Mon 05:57:29 PM 68.0667 -148.2333 175° South 240 276 23,000  Level Anchorage Center
Mon 05:58:30 PM 68.0167 -148.2333 180° South 220 253 23,000  Level Anchorage Center
Mon 05:59:30 PM 67.9500 -148.2167 175° South 240 276 23,000  Level Anchorage Center
Mon 06:00:31 PM 67.8833 -148.2167 180° South 240 276 23,000  Level Anchorage Center
Mon 06:01:31 PM 67.8167 -148.2000 175° South 220 253 23,000  Level Anchorage Center
Mon 06:02:31 PM 67.7500 -148.2000 180° South 230 265 23,000  Level Anchorage Center
Mon 06:03:32 PM 67.7000 -148.1833 173° South 220 253 23,000  Level Anchorage Center
Mon 06:04:32 PM 67.6333 -148.1833 180° South 220 253 23,000  Level Anchorage Center
Mon 06:05:32 PM 67.5667 -148.1833 180° South 250 288 23,000  Level Anchorage Center
Mon 06:06:33 PM 67.5000 -148.1667 175° South 210 242 23,000  Level Anchorage Center
Mon 06:07:33 PM 67.4500 -148.1500 173° South 220 253 23,000  Level Anchorage Center
Mon 06:08:33 PM 67.3833 -148.1500 180° South 210 242 23,000  Level Anchorage Center
Mon 06:09:34 PM 67.3000 -148.1333 176° South 240 276 23,000  Level Anchorage Center
Mon 06:10:34 PM 67.2500 -148.1333 180° South 230 265 23,000  Level Anchorage Center
Mon 06:11:35 PM 67.1833 -148.1167 174° South 220 253 23,000  Level Anchorage Center
Mon 06:12:35 PM 67.1167 -148.1167 180° South 220 253 23,000  Level Anchorage Center
Mon 06:13:35 PM 67.0667 -148.1000 173° South 220 253 23,000  Level Anchorage Center
Mon 06:14:36 PM 67.0000 -148.1000 180° South 230 265 23,000  Level Anchorage Center
Mon 06:15:35 PM 66.9333 -148.1000 180° South 220 253 23,000  Level Anchorage Center
Mon 06:16:36 PM 66.8667 -148.0833 174° South 230 265 23,000  Level Anchorage Center
Mon 06:17:36 PM 66.8167 -148.0833 180° South 220 253 23,000  Level Anchorage Center
Mon 06:18:37 PM 66.7500 -148.0833 180° South 220 253 23,000  Level Anchorage Center
Mon 06:19:37 PM 66.6833 -148.0667 174° South 230 265 23,000  Level Anchorage Center
Mon 06:20:37 PM 66.6333 -148.0667 180° South 220 253 23,000  Level Anchorage Center
Mon 06:21:38 PM 66.5667 -148.0500 174° South 230 265 23,000  Level Anchorage Center
Mon 06:22:38 PM 66.5000 -148.0500 180° South 230 265 23,000  Level Anchorage Center
Mon 06:23:38 PM 66.4333 -148.0333 174° South 220 253 23,000  Level Anchorage Center
Mon 06:24:39 PM 66.3833 -148.0333 180° South 220 253 23,000  Level Anchorage Center
Mon 06:25:39 PM 66.3167 -148.0167 174° South 230 265 23,000  Level Anchorage Center
Mon 06:26:39 PM 66.2500 -148.0167 180° South 220 253 23,000  Level Anchorage Center
Mon 06:27:40 PM 66.2000 -148.0167 180° South 220 253 23,000  Level Anchorage Center
Mon 06:28:40 PM 66.1333 -148.0000 174° South 220 253 23,000  Level Anchorage Center
Mon 06:29:40 PM 66.0667 -147.9833 174° South 220 253 23,000  Level Anchorage Center
Mon 06:30:41 PM 66.0000 -147.9833 180° South 230 265 23,000  Level Anchorage Center
Mon 06:31:41 PM 65.9333 -147.9667 174° South 230 265 23,000  Level Anchorage Center
Mon 06:32:41 PM 65.8833 -147.9667 180° South 230 265 23,000 -496 Level Anchorage Center
Mon 06:33:42 PM 65.8167 -147.9500 174° South 230 265 22,000 -1,091 Descending Anchorage Center
Mon 06:34:42 PM 65.7500 -147.9500 180° South 240 276 20,800 -1,200 Descending Anchorage Center
Mon 06:35:42 PM 65.6833 -147.9333 174° South 250 288 19,600 -1,190 Descending Anchorage Center
Mon 06:36:43 PM 65.6167 -147.9333 180° South 240 276 18,400 -1,140 Descending Anchorage Center
Mon 06:37:43 PM 65.5500 -147.9167 174° South 250 288 17,300 -1,250 Descending Anchorage Center
Mon 06:38:43 PM 65.4833 -147.9167 180° South 260 299 15,900 -1,400 Descending Anchorage Center
Mon 06:40:00 PM 65.4062 -147.9115 178° South  Level FlightAware Approximate
Mon 06:47:00 PM 64.9857 -147.8712 177° South  Level FlightAware Approximate
Mon 06:48:00 PM 64.9256 -147.8643 177° South  Level FlightAware Approximate
Mon 06:49:00 PM 64.8656 -147.8575 177° South  Level FlightAware Approximate
Mon 06:50:00 PM 64.8151 -147.8564 177° South  Level Estimated
Mon 06:51:00 PM 64.8151 -147.8564 177° South  Level Estimated
Mon 06:52:00 PM 64.8151 -147.8564 177° South  Level Estimated
Mon 06:53:00 PM 64.8151 -147.8564 177° South  Level Estimated
Mon 06:54:00 PM 64.8151 -147.8564 177° South  Level Estimated
Mon 06:55:00 PM 64.8151 -147.8564 177° South  Level Estimated
Mon 06:56:00 PM 64.8151 -147.8564 177° South  Level Estimated
Mon 06:57:00 PM 64.8151 -147.8564 177° South  Level Estimated
Mon 06:58:00 PM 64.8151 -147.8564 177° South  Level Estimated
Mon 06:59:00 PM 64.8151 -147.8564 177° South  Level Estimated
Mon 07:00:00 PM 64.8151 -147.8564 177° South  Level Estimated
Mon 07:01:00 PM 64.8151 -147.8564 177° South  Level Estimated
Mon 07:02:00 PM 64.8151 -147.8564 177° South  Level Estimated
Mon 07:03:00 PM 64.8151 -147.8564 177° South  Level Estimated
Mon 07:04:00 PM 64.8151 -147.8564 177° South  Level Estimated
Mon 07:05:00 PM 64.8151 -147.8564 177° South  Level Estimated
Mon 07:06:00 PM 64.8151 -147.8564 177° South  Level Estimated

Login

Don't have an account? Register now (free) for customized features, flight alerts, and more!